createdAt,value
2018-06-10T00:00:30.880Z,56.61
2018-06-10T00:01:31.008Z,56.48
2018-06-10T00:02:30.906Z,56.59
2018-06-10T00:03:31.205Z,56.49
2018-06-10T00:04:30.924Z,56.5
2018-06-10T00:05:31.140Z,56.47
2018-06-10T00:06:30.819Z,56.56
2018-06-10T00:07:30.926Z,56.5
2018-06-10T00:08:31.012Z,56.37
2018-06-10T00:09:31.059Z,56.64
2018-06-10T00:10:31.107Z,56.66
2018-06-10T00:11:30.907Z,56.54
2018-06-10T00:12:31.209Z,56.52
2018-06-10T00:13:30.906Z,56.47
2018-06-10T00:14:30.878Z,56.5
2018-06-10T00:15:30.921Z,56.51
2018-06-10T00:16:31.102Z,56.45
2018-06-10T00:17:31.064Z,56.59
2018-06-10T00:18:31.017Z,56.6
2018-06-10T00:19:31.078Z,56.64
2018-06-10T00:20:31.163Z,56.51
2018-06-10T00:21:30.935Z,56.49
2018-06-10T00:22:30.895Z,56.51
2018-06-10T00:23:30.940Z,56.62
2018-06-10T00:24:52.729Z,56.42
2018-06-10T00:25:31.091Z,56.59
2018-06-10T00:26:30.890Z,56.6
2018-06-10T00:27:31.097Z,56.46
2018-06-10T00:28:31.009Z,56.54
2018-06-10T00:29:30.713Z,56.58
2018-06-10T00:30:31.046Z,56.65
2018-06-10T00:31:30.968Z,56.49
2018-06-10T00:32:30.768Z,56.45
2018-06-10T00:33:31.000Z,56.64
2018-06-10T00:34:31.128Z,56.43
2018-06-10T00:35:31.039Z,56.64
2018-06-10T00:36:30.988Z,56.63
2018-06-10T00:37:31.022Z,56.5
2018-06-10T00:38:30.881Z,56.63
2018-06-10T00:39:30.845Z,56.58
2018-06-10T00:40:30.983Z,56.68
2018-06-10T00:41:30.854Z,56.61
2018-06-10T00:42:30.890Z,56.55
2018-06-10T00:43:30.928Z,56.54
2018-06-10T00:44:31.084Z,56.61
2018-06-10T00:45:31.029Z,56.56
2018-06-10T00:46:30.867Z,56.48
2018-06-10T00:47:31.022Z,56.66
2018-06-10T00:48:30.778Z,56.64
2018-06-10T00:49:30.845Z,56.49
2018-06-10T00:50:30.917Z,56.64
2018-06-10T00:51:30.889Z,56.66
2018-06-10T00:52:30.827Z,56.66
2018-06-10T00:53:30.945Z,56.53
2018-06-10T00:54:31.004Z,56.53
2018-06-10T00:55:31.011Z,56.65
2018-06-10T00:56:31.056Z,56.52
2018-06-10T00:57:30.847Z,56.54
2018-06-10T00:58:31.207Z,56.51
2018-06-10T00:59:30.891Z,56.65
2018-06-10T01:00:31.054Z,56.73
2018-06-10T01:01:31.001Z,56.57
2018-06-10T01:02:30.867Z,56.52
2018-06-10T01:03:31.007Z,56.48
2018-06-10T01:04:30.904Z,56.52
2018-06-10T01:05:30.942Z,56.46
2018-06-10T01:06:30.777Z,56.58
2018-06-10T01:07:30.793Z,56.56
2018-06-10T01:08:30.975Z,56.56
2018-06-10T01:09:30.827Z,56.62
2018-06-10T01:10:30.882Z,56.6
2018-06-10T01:11:30.832Z,56.62
2018-06-10T01:12:31.184Z,56.51
2018-06-10T01:13:30.934Z,56.46
2018-06-10T01:14:31.147Z,56.58
2018-06-10T01:15:30.662Z,56.51
2018-06-10T01:16:30.829Z,56.64
2018-06-10T01:17:30.956Z,56.64
2018-06-10T01:18:30.931Z,56.45
2018-06-10T01:19:30.951Z,56.56
2018-06-10T01:20:31.002Z,56.5
2018-06-10T01:21:31.022Z,56.56
2018-06-10T01:22:30.908Z,56.65
2018-06-10T01:23:30.832Z,56.49
2018-06-10T01:24:30.840Z,56.59
2018-06-10T01:25:31.157Z,56.43
2018-06-10T01:26:30.893Z,56.64
2018-06-10T01:27:30.981Z,56.52
2018-06-10T01:28:30.959Z,56.33
2018-06-10T01:29:30.983Z,56.47
2018-06-10T01:30:30.807Z,56.57
2018-06-10T01:31:30.970Z,56.59
2018-06-10T01:32:30.882Z,56.47
2018-06-10T01:33:30.845Z,56.6
2018-06-10T01:34:31.011Z,56.39
2018-06-10T01:35:30.851Z,56.58
2018-06-10T01:36:30.972Z,56.62
2018-06-10T01:37:30.921Z,56.44
2018-06-10T01:38:31.023Z,56.65
2018-06-10T01:39:31.045Z,56.66
2018-06-10T01:40:31.039Z,56.59
2018-06-10T01:41:30.965Z,56.66
2018-06-10T01:42:30.747Z,56.55
2018-06-10T01:43:30.999Z,56.56
2018-06-10T01:44:30.858Z,56.74
2018-06-10T01:45:30.937Z,56.53
2018-06-10T01:46:30.812Z,56.57
2018-06-10T01:47:30.922Z,56.57
2018-06-10T01:48:30.864Z,56.64
2018-06-10T01:49:30.935Z,56.71
2018-06-10T01:50:30.830Z,56.67
2018-06-10T01:51:30.804Z,56.56
2018-06-10T01:52:30.828Z,56.49
2018-06-10T01:53:31.027Z,56.65
2018-06-10T01:54:31.109Z,56.66
2018-06-10T01:55:30.884Z,56.61
2018-06-10T01:56:30.902Z,56.61
2018-06-10T01:57:31.040Z,56.57
2018-06-10T01:58:30.799Z,56.59
2018-06-10T01:59:30.901Z,56.59
2018-06-10T02:00:40.843Z,56.51
2018-06-10T02:01:30.965Z,56.63
2018-06-10T02:02:30.817Z,56.65
2018-06-10T02:03:31.035Z,56.67
2018-06-10T02:04:31.164Z,56.57
2018-06-10T02:05:30.827Z,56.76
2018-06-10T02:06:30.976Z,56.72
2018-06-10T02:07:31.007Z,56.49
2018-06-10T02:08:31.049Z,56.69
2018-06-10T02:09:31.172Z,56.63
2018-06-10T02:10:30.875Z,56.5
2018-06-10T02:11:30.841Z,56.63
2018-06-10T02:12:30.969Z,56.6
2018-06-10T02:13:31.034Z,56.7
2018-06-10T02:14:30.746Z,56.56
2018-06-10T02:15:30.973Z,56.69
2018-06-10T02:16:31.010Z,56.66
2018-06-10T02:17:30.934Z,56.62
2018-06-10T02:18:31.056Z,56.52
2018-06-10T02:19:30.828Z,56.61
2018-06-10T02:20:31.038Z,56.43
2018-06-10T02:21:30.827Z,56.44
2018-06-10T02:22:30.970Z,56.56
2018-06-10T02:23:30.920Z,56.67
2018-06-10T02:24:31.090Z,56.47
2018-06-10T02:25:30.912Z,56.73
2018-06-10T02:26:30.855Z,56.72
2018-06-10T02:27:31.029Z,56.68
2018-06-10T02:28:30.750Z,56.69
2018-06-10T02:29:30.790Z,56.62
2018-06-10T02:30:30.994Z,56.79
2018-06-10T02:31:30.796Z,56.72
2018-06-10T02:32:30.941Z,56.75
2018-06-10T02:33:31.027Z,56.83
2018-06-10T02:34:30.794Z,56.75
2018-06-10T02:35:30.814Z,56.69
2018-06-10T02:36:30.817Z,56.68
2018-06-10T02:37:30.772Z,56.67
2018-06-10T02:38:30.870Z,56.71
2018-06-10T02:39:31.028Z,56.71
2018-06-10T02:40:30.827Z,56.79
2018-06-10T02:41:30.972Z,56.69
2018-06-10T02:42:31.078Z,56.6
2018-06-10T02:43:30.979Z,56.65
2018-06-10T02:44:30.704Z,56.61
2018-06-10T02:45:31.024Z,56.83
2018-06-10T02:46:40.844Z,56.75
2018-06-10T02:47:30.945Z,56.62
2018-06-10T02:48:30.961Z,56.82
2018-06-10T02:49:30.764Z,56.64
2018-06-10T02:50:30.754Z,56.8
2018-06-10T02:51:30.818Z,56.61
2018-06-10T02:52:31.043Z,56.89
2018-06-10T02:53:31.036Z,56.71
2018-06-10T02:54:31.053Z,56.73
2018-06-10T02:55:30.821Z,56.76
2018-06-10T02:56:30.836Z,56.88
2018-06-10T02:57:30.868Z,56.83
2018-06-10T02:58:30.847Z,56.79
2018-06-10T02:59:30.896Z,56.85
2018-06-10T03:00:30.951Z,56.63
2018-06-10T03:01:30.975Z,56.76
2018-06-10T03:02:31.307Z,56.84
2018-06-10T03:03:31.051Z,56.88
2018-06-10T03:04:30.997Z,56.71
2018-06-10T03:05:30.812Z,56.69
2018-06-10T03:06:30.938Z,56.79
2018-06-10T03:07:30.772Z,56.78
2018-06-10T03:08:30.840Z,56.87
2018-06-10T03:09:30.929Z,56.69
2018-06-10T03:10:31.057Z,56.93
2018-06-10T03:11:30.968Z,56.9
2018-06-10T03:12:30.867Z,56.82
2018-06-10T03:13:30.910Z,56.94
2018-06-10T03:14:30.781Z,56.85
2018-06-10T03:15:30.994Z,56.68
2018-06-10T03:16:31.057Z,56.79
2018-06-10T03:17:30.783Z,56.76
2018-06-10T03:18:30.820Z,56.96
2018-06-10T03:19:30.852Z,56.67
2018-06-10T03:20:31.064Z,56.76
2018-06-10T03:21:31.194Z,56.87
2018-06-10T03:22:30.837Z,56.84
2018-06-10T03:23:30.946Z,56.65
2018-06-10T03:24:31.079Z,56.91
2018-06-10T03:25:30.820Z,56.62
2018-06-10T03:26:31.035Z,56.85
2018-06-10T03:27:30.856Z,56.64
2018-06-10T03:28:30.917Z,56.83
2018-06-10T03:29:31.100Z,56.77
2018-06-10T03:30:30.812Z,56.71
2018-06-10T03:31:30.857Z,56.71
2018-06-10T03:32:31.029Z,56.79
2018-06-10T03:33:30.994Z,56.91
2018-06-10T03:34:30.812Z,56.79
2018-06-10T03:35:30.768Z,56.75
2018-06-10T03:36:30.899Z,56.63
2018-06-10T03:37:30.929Z,56.59
2018-06-10T03:38:30.868Z,56.79
2018-06-10T03:39:30.850Z,56.72
2018-06-10T03:40:30.753Z,56.8
2018-06-10T03:41:30.956Z,56.78
2018-06-10T03:42:30.704Z,56.76
2018-06-10T03:43:30.920Z,56.82
2018-06-10T03:44:30.748Z,56.69
2018-06-10T03:45:30.724Z,56.69
2018-06-10T03:46:30.920Z,56.86
2018-06-10T03:47:30.863Z,56.74
2018-06-10T03:48:30.750Z,56.77
2018-06-10T03:49:30.805Z,56.81
2018-06-10T03:50:31.238Z,56.86
2018-06-10T03:51:30.782Z,56.83
2018-06-10T03:52:30.865Z,56.78
2018-06-10T03:53:31.005Z,56.67
2018-06-10T03:54:30.818Z,56.79
2018-06-10T03:55:30.782Z,56.74
2018-06-10T03:56:30.904Z,56.78
2018-06-10T03:57:30.767Z,56.74
2018-06-10T03:58:30.730Z,56.84
2018-06-10T03:59:30.817Z,56.74
2018-06-10T04:00:30.707Z,56.72
2018-06-10T04:01:30.896Z,56.78
2018-06-10T04:02:30.742Z,56.71
2018-06-10T04:03:30.811Z,56.77
2018-06-10T04:04:30.817Z,56.8
2018-06-10T04:05:30.989Z,56.76
2018-06-10T04:06:30.930Z,56.72
2018-06-10T04:07:30.882Z,56.66
2018-06-10T04:08:30.805Z,56.65
2018-06-10T04:09:30.866Z,56.8
2018-06-10T04:10:30.920Z,56.81
2018-06-10T04:11:30.931Z,56.7
2018-06-10T04:12:30.875Z,56.67
2018-06-10T04:13:30.713Z,56.82
2018-06-10T04:14:30.711Z,56.79
2018-06-10T04:15:30.914Z,56.78
2018-06-10T04:16:30.891Z,56.76
2018-06-10T04:17:30.755Z,56.75
2018-06-10T04:18:30.889Z,56.77
2018-06-10T04:19:30.726Z,56.69
2018-06-10T04:20:30.692Z,56.78
2018-06-10T04:21:31.149Z,56.75
2018-06-10T04:22:30.840Z,56.79
2018-06-10T04:23:30.795Z,56.7
2018-06-10T04:24:30.702Z,56.66
2018-06-10T04:25:30.754Z,56.72
2018-06-10T04:26:30.785Z,56.76
2018-06-10T04:27:30.893Z,56.77
2018-06-10T04:28:30.931Z,56.61
2018-06-10T04:29:30.911Z,56.76
2018-06-10T04:30:30.783Z,56.74
2018-06-10T04:31:30.748Z,56.73
2018-06-10T04:32:30.994Z,56.76
2018-06-10T04:33:30.864Z,56.76
2018-06-10T04:34:30.860Z,56.74
2018-06-10T04:35:30.959Z,56.77
2018-06-10T04:36:31.030Z,56.85
2018-06-10T04:37:31.076Z,56.78
2018-06-10T04:38:30.883Z,56.71
2018-06-10T04:39:30.993Z,56.72
2018-06-10T04:40:30.890Z,56.74
2018-06-10T04:41:30.845Z,56.75
2018-06-10T04:42:30.859Z,56.78
2018-06-10T04:43:30.948Z,56.58
2018-06-10T04:44:30.875Z,56.69
2018-06-10T04:45:30.843Z,56.73
2018-06-10T04:46:31.009Z,56.6
2018-06-10T04:47:30.910Z,56.67
2018-06-10T04:48:30.912Z,56.7
2018-06-10T04:49:30.861Z,56.83
2018-06-10T04:50:30.858Z,56.74
2018-06-10T04:51:30.755Z,56.73
2018-06-10T04:52:30.839Z,56.84
2018-06-10T04:53:30.706Z,56.75
2018-06-10T04:54:30.759Z,56.73
2018-06-10T04:55:30.772Z,56.73
2018-06-10T04:56:30.838Z,56.73
2018-06-10T04:57:30.676Z,56.69
2018-06-10T04:58:30.696Z,56.76
2018-06-10T04:59:30.773Z,56.66
2018-06-10T05:00:30.682Z,56.66
2018-06-10T05:01:31.041Z,56.68
2018-06-10T05:02:30.871Z,56.59
2018-06-10T05:03:30.969Z,56.83
2018-06-10T05:04:30.892Z,56.69
2018-06-10T05:05:30.828Z,56.69
2018-06-10T05:06:30.768Z,56.75
2018-06-10T05:07:30.692Z,56.66
2018-06-10T05:08:30.872Z,56.65
2018-06-10T05:09:30.880Z,56.72
2018-06-10T05:10:30.703Z,56.65
2018-06-10T05:11:30.734Z,56.7
2018-06-10T05:12:30.795Z,56.64
2018-06-10T05:13:30.739Z,56.78
2018-06-10T05:14:30.957Z,56.69
2018-06-10T05:15:30.729Z,56.7
2018-06-10T05:16:30.660Z,56.63
2018-06-10T05:17:31.033Z,56.82
2018-06-10T05:18:30.912Z,56.66
2018-06-10T05:19:30.792Z,56.78
2018-06-10T05:20:30.764Z,56.8
2018-06-10T05:21:30.771Z,56.66
2018-06-10T05:22:30.961Z,56.75
2018-06-10T05:23:30.843Z,56.65
2018-06-10T05:24:30.823Z,56.78
2018-06-10T05:25:30.666Z,56.76
2018-06-10T05:26:30.898Z,56.78
2018-06-10T05:27:30.975Z,56.66
2018-06-10T05:28:30.714Z,56.6
2018-06-10T05:29:30.844Z,56.77
2018-06-10T05:30:30.930Z,56.76
2018-06-10T05:31:30.895Z,56.68
2018-06-10T05:32:30.926Z,56.62
2018-06-10T05:33:30.802Z,56.74
2018-06-10T05:34:40.726Z,56.59
2018-06-10T05:35:30.860Z,56.82
2018-06-10T05:36:30.885Z,56.72
2018-06-10T05:37:30.684Z,56.82
2018-06-10T05:38:30.936Z,56.65
2018-06-10T05:39:30.659Z,56.85
2018-06-10T05:40:30.879Z,56.79
2018-06-10T05:41:30.732Z,56.87
2018-06-10T05:42:30.807Z,56.72
2018-06-10T05:43:30.895Z,56.65
2018-06-10T05:44:30.720Z,56.83
2018-06-10T05:45:30.752Z,56.81
2018-06-10T05:46:30.853Z,56.62
2018-06-10T05:47:30.818Z,56.64
2018-06-10T05:48:30.783Z,56.79
2018-06-10T05:49:30.783Z,56.72
2018-06-10T05:50:30.924Z,56.74
2018-06-10T05:51:30.889Z,56.75
2018-06-10T05:52:31.023Z,56.77
2018-06-10T05:53:30.899Z,56.68
2018-06-10T05:54:30.705Z,56.73
2018-06-10T05:55:30.722Z,56.8
2018-06-10T05:56:30.860Z,56.68
2018-06-10T05:57:30.798Z,56.63
2018-06-10T05:58:30.784Z,56.69
2018-06-10T05:59:30.758Z,56.73
2018-06-10T06:00:30.640Z,56.68
2018-06-10T06:01:30.815Z,56.8
2018-06-10T06:02:30.902Z,56.67
2018-06-10T06:03:30.727Z,56.76
2018-06-10T06:04:30.838Z,56.78
2018-06-10T06:05:30.740Z,56.74
2018-06-10T06:06:30.963Z,56.71
2018-06-10T06:07:30.755Z,56.69
2018-06-10T06:08:30.756Z,56.77
2018-06-10T06:09:30.677Z,56.76
2018-06-10T06:10:30.723Z,56.62
2018-06-10T06:11:30.755Z,56.59
2018-06-10T06:12:30.920Z,56.72
2018-06-10T06:13:30.785Z,56.6
2018-06-10T06:14:30.672Z,56.69
2018-06-10T06:15:31.013Z,56.6
2018-06-10T06:16:30.813Z,56.64
2018-06-10T06:17:30.966Z,56.74
2018-06-10T06:18:30.660Z,56.6
2018-06-10T06:19:30.699Z,56.62
2018-06-10T06:20:30.878Z,56.67
2018-06-10T06:21:30.765Z,56.76
2018-06-10T06:22:30.956Z,56.71
2018-06-10T06:23:30.754Z,56.77
2018-06-10T06:24:30.895Z,56.76
2018-06-10T06:25:30.757Z,56.71
2018-06-10T06:26:30.783Z,56.77
2018-06-10T06:27:30.727Z,56.76
2018-06-10T06:28:30.804Z,56.61
2018-06-10T06:29:30.645Z,56.63
2018-06-10T06:30:30.934Z,56.55
2018-06-10T06:31:30.810Z,56.55
2018-06-10T06:32:30.879Z,56.59
2018-06-10T06:33:31.060Z,56.74
2018-06-10T06:34:30.892Z,56.71
2018-06-10T06:35:30.864Z,56.75
2018-06-10T06:36:30.654Z,56.67
2018-06-10T06:37:30.769Z,56.77
2018-06-10T06:38:30.975Z,56.6
2018-06-10T06:39:30.830Z,56.71
2018-06-10T06:40:30.716Z,56.62
2018-06-10T06:41:30.892Z,56.67
2018-06-10T06:42:30.839Z,56.69
2018-06-10T06:43:30.726Z,56.74
2018-06-10T06:44:30.853Z,56.69
2018-06-10T06:45:30.851Z,56.67
2018-06-10T06:46:30.773Z,56.66
2018-06-10T06:47:30.637Z,56.69
2018-06-10T06:48:30.692Z,56.63
2018-06-10T06:49:30.771Z,56.67
2018-06-10T06:50:30.866Z,56.65
2018-06-10T06:51:30.706Z,56.66
2018-06-10T06:52:30.968Z,56.63
2018-06-10T06:53:30.744Z,56.72
2018-06-10T06:54:30.731Z,56.69
2018-06-10T06:55:30.857Z,56.61
2018-06-10T06:56:30.691Z,56.76
2018-06-10T06:57:30.915Z,56.75
2018-06-10T06:58:30.715Z,56.62
2018-06-10T06:59:30.836Z,56.69
2018-06-10T07:00:30.893Z,56.63
2018-06-10T07:01:30.916Z,56.68
2018-06-10T07:02:30.680Z,56.71
2018-06-10T07:03:30.906Z,56.71
2018-06-10T07:04:30.931Z,56.66
2018-06-10T07:05:30.689Z,56.6
2018-06-10T07:06:30.774Z,56.64
2018-06-10T07:07:30.785Z,56.71
2018-06-10T07:08:30.897Z,56.49
2018-06-10T07:09:30.762Z,56.67
2018-06-10T07:10:30.682Z,56.73
2018-06-10T07:11:30.802Z,56.62
2018-06-10T07:12:30.643Z,56.66
2018-06-10T07:13:30.839Z,56.59
2018-06-10T07:14:30.967Z,56.62
2018-06-10T07:15:30.828Z,56.64
2018-06-10T07:16:30.709Z,56.62
2018-06-10T07:17:30.695Z,56.64
2018-06-10T07:18:30.914Z,56.57
2018-06-10T07:19:30.877Z,56.63
2018-06-10T07:20:30.679Z,56.65
2018-06-10T07:21:30.811Z,56.59
2018-06-10T07:22:30.844Z,56.6
2018-06-10T07:23:30.899Z,56.63
2018-06-10T07:24:30.860Z,56.54
2018-06-10T07:25:30.674Z,56.56
2018-06-10T07:26:30.894Z,56.67
2018-06-10T07:27:30.699Z,56.6
2018-06-10T07:28:30.722Z,56.53
2018-06-10T07:29:30.747Z,56.62
2018-06-10T07:30:30.893Z,56.57
2018-06-10T07:31:30.832Z,56.56
2018-06-10T07:32:30.815Z,56.58
2018-06-10T07:33:30.804Z,56.59
2018-06-10T07:34:30.838Z,56.61
2018-06-10T07:35:31.010Z,56.65
2018-06-10T07:36:30.774Z,56.55
2018-06-10T07:37:30.818Z,56.53
2018-06-10T07:38:30.847Z,56.55
2018-06-10T07:39:30.917Z,56.55
2018-06-10T07:40:30.948Z,56.48
2018-06-10T07:41:30.937Z,56.62
2018-06-10T07:42:31.006Z,56.63
2018-06-10T07:43:30.693Z,56.59
2018-06-10T07:44:30.820Z,56.66
2018-06-10T07:45:30.813Z,56.58
2018-06-10T07:46:30.915Z,56.58
2018-06-10T07:47:30.780Z,56.61
2018-06-10T07:48:30.789Z,56.62
2018-06-10T07:49:30.618Z,56.78
2018-06-10T07:50:30.661Z,56.73
2018-06-10T07:51:30.798Z,56.92
2018-06-10T07:52:30.860Z,56.81
2018-06-10T07:53:30.658Z,56.84
2018-06-10T07:54:30.772Z,56.62
2018-06-10T07:55:30.708Z,56.77
2018-06-10T07:56:30.775Z,56.74
2018-06-10T07:57:30.898Z,56.78
2018-06-10T07:58:30.868Z,56.72
2018-06-10T07:59:30.675Z,56.8
2018-06-10T08:00:30.634Z,56.83
2018-06-10T08:01:30.744Z,56.81
2018-06-10T08:02:30.795Z,56.72
2018-06-10T08:03:30.825Z,56.69
2018-06-10T08:04:30.913Z,56.78
2018-06-10T08:05:30.746Z,56.94
2018-06-10T08:06:30.938Z,56.85
2018-06-10T08:07:30.900Z,56.75
2018-06-10T08:08:30.725Z,56.86
2018-06-10T08:09:30.712Z,56.75
2018-06-10T08:10:30.630Z,56.72
2018-06-10T08:11:30.791Z,56.75
2018-06-10T08:12:30.702Z,56.85
2018-06-10T08:13:30.704Z,56.79
2018-06-10T08:14:30.857Z,56.77
2018-06-10T08:15:31.063Z,56.64
2018-06-10T08:16:30.746Z,56.79
2018-06-10T08:17:30.741Z,56.74
2018-06-10T08:18:30.906Z,56.71
2018-06-10T08:19:30.966Z,56.66
2018-06-10T08:20:30.629Z,56.76
2018-06-10T08:21:30.735Z,56.75
2018-06-10T08:22:30.762Z,56.67
2018-06-10T08:23:30.899Z,56.67
2018-06-10T08:24:30.799Z,56.72
2018-06-10T08:25:30.790Z,56.62
2018-06-10T08:26:30.904Z,56.73
2018-06-10T08:27:30.868Z,56.72
2018-06-10T08:28:30.863Z,56.7
2018-06-10T08:29:30.707Z,56.72
2018-06-10T08:30:30.816Z,56.68
2018-06-10T08:31:30.786Z,56.7
2018-06-10T08:32:30.724Z,56.72
2018-06-10T08:33:30.693Z,56.64
2018-06-10T08:34:30.627Z,56.71
2018-06-10T08:35:30.882Z,56.67
2018-06-10T08:36:30.739Z,56.59
2018-06-10T08:37:30.913Z,56.7
2018-06-10T08:38:30.787Z,56.83
2018-06-10T08:39:30.711Z,57.25
2018-06-10T08:40:30.722Z,57.09
2018-06-10T08:41:30.915Z,57.05
2018-06-10T08:42:30.780Z,57.19
2018-06-10T08:43:30.933Z,57.38
2018-06-10T08:44:30.644Z,57.5
2018-06-10T08:45:30.856Z,57.29
2018-06-10T08:46:30.784Z,57.42
2018-06-10T08:47:30.705Z,57.44
2018-06-10T08:48:30.712Z,57.34
2018-06-10T08:49:30.755Z,57.33
2018-06-10T08:50:30.958Z,57.26
2018-06-10T08:51:30.715Z,57.34
2018-06-10T08:52:30.858Z,57.27
2018-06-10T08:53:30.733Z,57.51
2018-06-10T08:54:30.812Z,57.44
2018-06-10T08:55:30.774Z,57.32
2018-06-10T08:56:30.589Z,57.31
2018-06-10T08:57:30.782Z,57.42
2018-06-10T08:58:30.807Z,57.57
2018-06-10T08:59:30.713Z,57.34
2018-06-10T09:00:30.887Z,57.49
2018-06-10T09:01:30.726Z,57.56
2018-06-10T09:02:30.753Z,57.54
2018-06-10T09:03:30.699Z,57.41
2018-06-10T09:04:30.799Z,57.45
2018-06-10T09:05:30.675Z,57.5
2018-06-10T09:06:30.736Z,57.4
2018-06-10T09:07:30.766Z,57.57
2018-06-10T09:08:30.879Z,57.59
2018-06-10T09:09:30.746Z,57.42
2018-06-10T09:10:30.748Z,57.5
2018-06-10T09:11:30.853Z,57.52
2018-06-10T09:12:30.593Z,57.56
2018-06-10T09:13:30.705Z,58.36
2018-06-10T09:14:30.645Z,58.11
2018-06-10T09:15:30.710Z,57.78
2018-06-10T09:16:30.789Z,57.56
2018-06-10T09:17:30.929Z,57.55
2018-06-10T09:18:31.160Z,57.58
2018-06-10T09:19:30.768Z,58.17
2018-06-10T09:20:30.744Z,58.32
2018-06-10T09:21:30.850Z,58.24
2018-06-10T09:22:30.805Z,58.07
2018-06-10T09:23:30.797Z,58.13
2018-06-10T09:24:30.740Z,58.07
2018-06-10T09:25:30.644Z,58.1
2018-06-10T09:26:30.857Z,58
2018-06-10T09:27:30.912Z,58.05
2018-06-10T09:28:30.952Z,57.87
2018-06-10T09:29:30.855Z,58
2018-06-10T09:30:30.873Z,57.93
2018-06-10T09:31:30.780Z,57.92
2018-06-10T09:32:30.724Z,57.94
2018-06-10T09:33:30.880Z,57.98
2018-06-10T09:34:30.648Z,58.27
2018-06-10T09:35:30.726Z,57.97
2018-06-10T09:36:30.845Z,57.97
2018-06-10T09:37:30.819Z,58.13
2018-06-10T09:38:30.726Z,57.89
2018-06-10T09:39:30.834Z,58.1
2018-06-10T09:40:30.766Z,57.97
2018-06-10T09:41:30.634Z,58.26
2018-06-10T09:42:30.630Z,58.06
2018-06-10T09:43:30.614Z,57.62
2018-06-10T09:44:30.857Z,58.13
2018-06-10T09:45:30.845Z,58.38
2018-06-10T09:46:30.764Z,58.44
2018-06-10T09:47:30.763Z,58.23
2018-06-10T09:48:30.681Z,58.41
2018-06-10T09:49:30.640Z,58.06
2018-06-10T09:50:30.615Z,58.2
2018-06-10T09:51:30.978Z,58.23
2018-06-10T09:52:30.827Z,58.13
2018-06-10T09:53:30.688Z,58.17
2018-06-10T09:54:30.621Z,57.93
2018-06-10T09:55:31.289Z,58.2
2018-06-10T09:56:30.733Z,57.98
2018-06-10T09:57:30.611Z,58.08
2018-06-10T09:58:30.726Z,57.77
2018-06-10T09:59:30.951Z,57.75
2018-06-10T10:00:31.065Z,57.78
2018-06-10T10:01:30.623Z,58
2018-06-10T10:02:30.682Z,57.98
2018-06-10T10:03:30.997Z,57.84
2018-06-10T10:04:30.943Z,57.83
2018-06-10T10:05:30.761Z,57.74
2018-06-10T10:06:30.865Z,57.76
2018-06-10T10:07:30.923Z,57.77
2018-06-10T10:08:30.679Z,57.85
2018-06-10T10:09:30.901Z,57.71
2018-06-10T10:10:30.618Z,57.7
2018-06-10T10:11:30.825Z,57.73
2018-06-10T10:12:30.765Z,57.88
2018-06-10T10:13:30.673Z,57.61
2018-06-10T10:14:30.798Z,57.71
2018-06-10T10:15:30.796Z,57.71
2018-06-10T10:16:30.825Z,57.62
2018-06-10T10:17:30.850Z,57.6
2018-06-10T10:18:30.705Z,57.96
2018-06-10T10:19:30.622Z,57.65
2018-06-10T10:20:30.687Z,57.91
2018-06-10T10:21:30.587Z,57.59
2018-06-10T10:22:30.815Z,57.69
2018-06-10T10:23:30.881Z,57.62
2018-06-10T10:24:30.857Z,57.6
2018-06-10T10:25:30.991Z,57.36
2018-06-10T10:26:30.616Z,57.54
2018-06-10T10:27:30.815Z,57.35
2018-06-10T10:28:30.626Z,57.48
2018-06-10T10:29:30.815Z,57.46
2018-06-10T10:30:30.755Z,57.48
2018-06-10T10:31:30.700Z,57.63
2018-06-10T10:32:30.839Z,57.7
2018-06-10T10:33:30.658Z,57.28
2018-06-10T10:34:30.801Z,57.31
2018-06-10T10:35:30.693Z,57.6
2018-06-10T10:36:30.834Z,57.4
2018-06-10T10:37:30.616Z,57.54
2018-06-10T10:38:30.933Z,57.44
2018-06-10T10:39:30.591Z,57.63
2018-06-10T10:40:32.733Z,57.26
2018-06-10T10:41:32.746Z,57.11
2018-06-10T10:42:32.629Z,56.84
2018-06-10T10:43:32.654Z,56.71
2018-06-10T10:44:32.601Z,56.65
2018-06-10T10:45:32.522Z,56.66
2018-06-10T10:46:32.595Z,56.43
2018-06-10T10:47:32.590Z,56.46
2018-06-10T10:48:32.593Z,56.42
2018-06-10T10:49:32.585Z,56.22
2018-06-10T10:50:32.566Z,56.36
2018-06-10T10:51:32.566Z,56.15
2018-06-10T10:52:32.600Z,56.29
2018-06-10T10:53:32.700Z,56.26
2018-06-10T10:54:32.616Z,56.21
2018-06-10T10:55:32.671Z,56.4
2018-06-10T10:57:18.531Z,56.49
2018-06-10T10:57:32.590Z,56.3
2018-06-10T10:58:32.697Z,56.52
2018-06-10T10:59:32.676Z,56.57
2018-06-10T11:00:32.703Z,56.35
2018-06-10T11:01:32.747Z,56.29
2018-06-10T11:02:32.698Z,56.42
2018-06-10T11:03:42.957Z,56.29
2018-06-10T11:04:32.853Z,56.36
2018-06-10T11:05:32.526Z,56.1
2018-06-10T11:06:32.643Z,56.23
2018-06-10T11:07:32.582Z,56.06
2018-06-10T11:08:32.557Z,56.41
2018-06-10T11:09:32.753Z,56.09
2018-06-10T11:10:32.616Z,56.23
2018-06-10T11:11:32.459Z,56.19
2018-06-10T11:12:32.760Z,56.03
2018-06-10T11:13:32.704Z,56.03
2018-06-10T11:14:32.836Z,56.02
2018-06-10T11:15:32.524Z,55.91
2018-06-10T11:16:32.670Z,56.02
2018-06-10T11:17:32.496Z,56
2018-06-10T11:18:32.644Z,55.89
2018-06-10T11:19:32.637Z,55.83
2018-06-10T11:20:32.685Z,55.82
2018-06-10T11:21:32.685Z,55.61
2018-06-10T11:22:32.739Z,56.44
2018-06-10T11:23:32.750Z,56.33
2018-06-10T11:24:32.605Z,56.3
2018-06-10T11:25:32.754Z,56.28
2018-06-10T11:26:32.685Z,56.39
2018-06-10T11:27:32.562Z,56.03
2018-06-10T11:28:32.730Z,55.97
2018-06-10T11:29:32.552Z,55.75
2018-06-10T11:30:32.589Z,55.91
2018-06-10T11:31:32.644Z,55.83
2018-06-10T11:32:32.739Z,55.86
2018-06-10T11:33:32.698Z,55.97
2018-06-10T11:34:32.794Z,55.93
2018-06-10T11:35:32.638Z,55.77
2018-06-10T11:36:32.823Z,55.77
2018-06-10T11:37:32.835Z,55.69
2018-06-10T11:38:32.739Z,55.71
2018-06-10T11:39:32.584Z,55.81
2018-06-10T11:40:32.472Z,55.78
2018-06-10T11:41:32.924Z,55.56
2018-06-10T11:42:32.822Z,55.68
2018-06-10T11:43:32.902Z,55.81
2018-06-10T11:44:32.742Z,55.43
2018-06-10T11:45:32.740Z,55.74
2018-06-10T11:46:32.571Z,55.62
2018-06-10T11:47:32.805Z,55.44
2018-06-10T11:48:32.590Z,55.75
2018-06-10T11:49:32.766Z,55.67
2018-06-10T11:50:32.589Z,55.64
2018-06-10T11:51:32.525Z,55.6
2018-06-10T11:52:32.720Z,55.65
2018-06-10T11:53:32.657Z,55.59
2018-06-10T11:54:32.668Z,55.51
2018-06-10T11:55:32.860Z,55.68
2018-06-10T11:56:32.803Z,55.47
2018-06-10T11:57:32.809Z,55.64
2018-06-10T11:58:32.699Z,55.81
2018-06-10T11:59:32.680Z,55.68
2018-06-10T12:00:32.648Z,55.9
2018-06-10T12:01:55.788Z,55.87
2018-06-10T12:02:32.644Z,55.82
2018-06-10T12:03:32.558Z,55.86
2018-06-10T12:04:32.708Z,55.88
2018-06-10T12:05:32.873Z,55.89
2018-06-10T12:06:32.891Z,55.89
2018-06-10T12:07:32.765Z,55.99
2018-06-10T12:08:32.649Z,55.93
2018-06-10T12:09:32.677Z,55.76
2018-06-10T12:10:32.983Z,55.93
2018-06-10T12:11:32.753Z,55.8
2018-06-10T12:12:32.750Z,55.91
2018-06-10T12:13:32.720Z,56.08
2018-06-10T12:14:32.600Z,56.01
2018-06-10T12:15:32.765Z,55.85
2018-06-10T12:16:32.886Z,56.41
2018-06-10T12:17:33.042Z,56.64
2018-06-10T12:18:32.816Z,56.64
2018-06-10T12:19:32.704Z,56.69
2018-06-10T12:20:32.798Z,56.72
2018-06-10T12:21:32.807Z,58.46
2018-06-10T12:22:32.799Z,56.89
2018-06-10T12:23:32.742Z,56.67
2018-06-10T12:24:32.673Z,56.79
2018-06-10T12:25:32.798Z,56.42
2018-06-10T12:26:32.769Z,56.52
2018-06-10T12:27:32.750Z,56.65
2018-06-10T12:28:32.630Z,56.26
2018-06-10T12:29:32.758Z,56.16
2018-06-10T12:30:32.603Z,56.11
2018-06-10T12:31:32.651Z,55.9
2018-06-10T12:32:32.762Z,56.01
2018-06-10T12:33:32.578Z,55.88
2018-06-10T12:34:33.101Z,55.86
2018-06-10T12:35:32.822Z,56.01
2018-06-10T12:36:32.711Z,55.98
2018-06-10T12:37:32.599Z,56.03
2018-06-10T12:38:32.822Z,56.21
2018-06-10T12:39:32.872Z,56.03
2018-06-10T12:40:32.681Z,55.95
2018-06-10T12:41:32.772Z,55.94
2018-06-10T12:42:32.697Z,55.8
2018-06-10T12:43:32.710Z,55.74
2018-06-10T12:44:32.739Z,55.85
2018-06-10T12:45:32.774Z,55.66
2018-06-10T12:46:32.509Z,55.64
2018-06-10T12:47:32.709Z,55.58
2018-06-10T12:48:32.684Z,55.78
2018-06-10T12:49:32.895Z,55.58
2018-06-10T12:50:32.600Z,55.55
2018-06-10T12:51:32.821Z,56.44
2018-06-10T12:52:32.692Z,56.16
2018-06-10T12:53:32.638Z,56.58
2018-06-10T12:54:32.756Z,56.12
2018-06-10T12:55:32.584Z,55.84